Time;durP1;ratioP1;P1;durP2;ratioP2;P2;SDS_P1;SDS_P2;PMS_P1;PMS_P2;Temp;Humidity;BMP_temperature;BMP_pressure;BME280_temperature;BME280_humidity;BME280_pressure;Samples;Min_cycle;Max_cycle;Signal;HPM_P1;HPM_P2
2021/07/03 09:11:12;;;;;;;68.67;34.97;;;29.90;1.00;;;;;;5110106;27;20571;-76
2021/07/03 09:14:19;;;;;;;65.80;19.00;;;29.70;1.00;;;;;;5110805;28;20449;-80
2021/07/03 09:16:46;;;;;;;63.30;13.10;;;30.10;1.00;;;;;;5110516;28;20546;-79
2021/07/03 09:19:13;;;;;;;69.90;26.20;;;30.30;1.00;;;;;;5110408;28;20576;-79
2021/07/03 09:21:40;;;;;;;68.97;23.73;;;29.80;1.00;;;;;;5110458;28;20549;-76
2021/07/03 09:24:13;;;;;;;76.27;38.87;;;30.40;1.00;;;;;;5110488;28;20533;-77
2021/07/03 09:26:41;;;;;;;73.03;39.30;;;30.20;1.00;;;;;;5108795;28;20538;-79
2021/07/03 09:29:11;;;;;;;78.87;60.93;;;30.60;1.00;;;;;;5110193;28;20634;-77
2021/07/03 09:31:38;;;;;;;74.90;35.20;;;31.10;1.00;;;;;;5110296;28;20460;-77
2021/07/03 09:34:14;;;;;;;77.53;39.83;;;30.60;1.00;;;;;;5110457;28;20882;-77
2021/07/03 09:36:41;;;;;;;78.07;30.43;;;31.00;1.00;;;;;;5110333;28;20536;-76
2021/07/03 09:39:08;;;;;;;80.53;48.50;;;31.10;1.00;;;;;;5110236;28;20461;-77
2021/07/03 09:41:37;;;;;;;76.40;39.37;;;30.80;1.00;;;;;;5108721;28;20860;-77
2021/07/03 09:44:09;;;;;;;84.00;61.17;;;31.10;1.00;;;;;;5110213;28;20504;-78
2021/07/03 09:46:39;;;;;;;84.27;70.60;;;31.50;1.00;;;;;;5110080;28;20445;-78
2021/07/03 09:49:08;;;;;;;85.43;71.93;;;31.70;1.00;;;;;;5109693;28;20833;-78
2021/07/03 09:51:37;;;;;;;84.20;71.93;;;32.10;1.00;;;;;;5109759;28;20543;-79
2021/07/03 09:54:05;;;;;;;82.03;44.97;;;32.00;1.00;;;;;;5109958;28;20460;-77
2021/07/03 09:56:32;;;;;;;103.13;92.37;;;32.30;1.00;;;;;;5104767;28;20501;-78
2021/07/03 09:58:59;;;;;;;93.13;77.87;;;31.00;1.00;;;;;;5089362;28;20460;-79
2021/07/03 10:01:27;;;;;;;84.93;65.43;;;30.50;1.00;;;;;;5089288;28;20474;-79
2021/07/03 10:03:55;;;;;;;95.80;85.90;;;30.80;1.00;;;;;;5089589;28;20549;-79
2021/07/03 10:06:30;;;;;;;90.33;80.50;;;31.90;1.00;;;;;;5089235;28;20523;-78
2021/07/03 10:09:01;;;;;;;156.87;144.03;;;31.50;1.00;;;;;;5088556;28;20556;-78
2021/07/03 10:11:29;;;;;;;100.17;82.73;;;31.30;1.00;;;;;;5087889;28;20486;-77
2021/07/03 10:14:02;;;;;;;166.77;153.67;;;32.30;1.00;;;;;;5089019;28;20453;-78
2021/07/03 10:16:31;;;;;;;92.03;69.70;;;32.30;1.00;;;;;;5089022;28;20431;-78
2021/07/03 10:19:07;;;;;;;209.43;194.93;;;32.90;1.00;;;;;;5088974;28;20436;-78
2021/07/03 10:21:34;;;;;;;91.93;78.97;;;33.40;1.00;;;;;;5079651;28;20613;-78
2021/07/03 10:24:01;;;;;;;91.40;73.63;;;33.50;1.00;;;;;;5075282;28;20428;-78
2021/07/03 10:26:37;;;;;;;85.60;52.87;;;33.10;1.00;;;;;;5074141;28;20800;-79
2021/07/03 10:29:15;;;;;;;91.80;65.47;;;33.10;1.00;;;;;;5075409;28;20437;-77
2021/07/03 10:31:43;;;;;;;89.10;63.47;;;33.20;1.00;;;;;;5075439;28;20430;-78
2021/07/03 10:34:12;;;;;;;141.23;129.13;;;33.50;1.00;;;;;;5075216;28;20541;-84
2021/07/03 10:36:39;;;;;;;109.00;98.03;;;33.80;1.00;;;;;;5074887;28;20462;-81
2021/07/03 10:39:18;;;;;;;;;;;;;;;;;;;;;
2021/07/03 10:41:58;;;;;;;98.10;87.43;;;34.00;1.00;;;;;;5074042;28;20462;-80
2021/07/03 10:44:36;;;;;;;182.07;168.57;;;34.10;1.00;;;;;;5074984;28;20497;-82
2021/07/03 10:47:08;;;;;;;242.63;227.57;;;34.00;1.00;;;;;;5074455;28;20458;-81
2021/07/03 10:49:37;;;;;;;125.77;114.30;;;34.10;1.00;;;;;;5075060;28;20512;-80
2021/07/03 10:52:15;;;;;;;344.37;325.37;;;34.80;1.00;;;;;;5075057;28;20425;-81
2021/07/03 10:54:42;;;;;;;339.53;320.70;;;34.60;1.00;;;;;;5074679;28;20503;-79
2021/07/03 11:11:09;;;;;;;75.60;23.53;;;35.60;1.00;;;;;;4866175;29;20475;-82
2021/07/03 11:13:56;;;;;;;88.87;57.70;;;34.30;1.00;;;;;;5012617;28;20523;-82
2021/07/03 11:16:40;;;;;;;75.77;23.37;;;34.20;1.00;;;;;;5074572;28;20615;-81
2021/07/03 11:19:36;;;;;;;77.57;25.17;;;33.90;1.00;;;;;;5093344;28;20433;-81
2021/07/03 11:34:10;;;;;;;;;;;;;;;;;;;;;
2021/07/03 11:37:19;;;;;;;;;;;;;;;;;;;;;
2021/07/03 11:40:14;;;;;;;74.30;18.20;;;34.40;1.00;;;;;;4973890;28;20980;-84
2021/07/03 11:51:43;;;;;;;72.70;17.77;;;31.30;1.00;;;;;;5012136;28;20464;-83
2021/07/03 11:54:13;;;;;;;71.33;16.27;;;31.30;1.00;;;;;;5014099;28;20581;-83
2021/07/03 11:56:55;;;;;;;83.20;39.30;;;31.50;1.00;;;;;;5013109;28;20508;-83
2021/07/03 11:59:22;;;;;;;72.03;20.53;;;31.20;1.00;;;;;;5013966;28;20453;-77
2021/07/03 12:01:50;;;;;;;71.37;16.50;;;31.30;1.00;;;;;;5013956;28;20460;-78
2021/07/03 12:04:17;;;;;;;73.30;19.93;;;31.00;1.00;;;;;;5013827;28;20427;-75
2021/07/03 12:06:45;;;;;;;77.27;29.70;;;30.20;1.00;;;;;;5009017;28;20959;-79
2021/07/03 12:09:12;;;;;;;72.97;25.90;;;29.80;1.00;;;;;;4994649;28;20433;-75
2021/07/03 12:11:40;;;;;;;73.13;25.40;;;30.00;1.00;;;;;;4994793;28;20521;-80
2021/07/03 12:14:13;;;;;;;70.93;18.30;;;30.60;1.00;;;;;;5013426;28;20462;-76
2021/07/03 12:16:40;;;;;;;71.67;19.73;;;30.60;1.00;;;;;;5013618;28;20979;-75
2021/07/03 12:19:09;;;;;;;70.10;20.30;;;30.40;1.00;;;;;;5013644;28;20460;-75
2021/07/03 12:21:36;;;;;;;69.13;18.40;;;30.00;1.00;;;;;;5013821;28;20450;-82
2021/07/03 12:24:05;;;;;;;69.23;17.40;;;30.80;1.00;;;;;;5013750;28;20457;-83
2021/07/03 12:26:34;;;;;;;68.77;16.80;;;32.40;1.00;;;;;;5012610;28;20931;-83
2021/07/03 12:29:30;;;;;;;69.40;16.57;;;33.00;1.00;;;;;;5013682;28;20453;-82
2021/07/03 12:32:21;;;;;;;70.97;20.93;;;33.60;1.00;;;;;;4975496;28;20461;-82
2021/07/03 12:34:48;;;;;;;71.00;22.13;;;34.60;1.00;;;;;;5013266;28;20478;-83
2021/07/03 12:37:23;;;;;;;73.13;25.30;;;34.30;1.00;;;;;;5013226;28;20478;-82
2021/07/03 12:39:52;;;;;;;72.47;20.90;;;33.60;1.00;;;;;;5013502;28;20465;-83
2021/07/03 12:42:29;;;;;;;73.77;27.87;;;33.90;1.00;;;;;;5012633;28;20461;-83
2021/07/03 12:45:05;;;;;;;72.90;26.03;;;34.50;1.00;;;;;;5012998;28;20519;-77
2021/07/03 12:47:32;;;;;;;73.80;26.23;;;34.80;1.00;;;;;;5013121;28;20431;-79
2021/07/03 12:50:00;;;;;;;74.20;25.17;;;34.30;1.00;;;;;;5012976;28;20460;-80
2021/07/03 12:52:35;;;;;;;76.30;33.37;;;33.90;1.00;;;;;;5013260;28;20463;-78
2021/07/03 12:55:02;;;;;;;80.27;31.77;;;34.40;1.00;;;;;;5011977;28;20431;-78
2021/07/03 12:57:41;;;;;;;74.07;22.23;;;33.80;1.00;;;;;;5013284;28;20454;-78
2021/07/03 13:03:29;;;;;;;73.67;21.00;;;33.90;1.00;;;;;;4956459;28;20939;-79
2021/07/03 13:06:01;;;;;;;77.97;27.17;;;33.00;1.00;;;;;;5013034;28;20842;-77
2021/07/03 13:08:29;;;;;;;80.57;35.27;;;32.00;1.00;;;;;;5020571;28;20477;-77
2021/07/03 13:10:56;;;;;;;77.37;32.13;;;31.20;1.00;;;;;;5011698;28;20564;-83
2021/07/03 13:13:37;;;;;;;75.07;24.40;;;30.80;1.00;;;;;;5013169;28;20457;-83
2021/07/03 13:16:12;;;;;;;74.00;23.50;;;30.40;1.00;;;;;;5012987;28;20858;-82
2021/07/03 13:18:40;;;;;;;73.77;22.30;;;29.70;1.00;;;;;;5013033;28;20862;-80
2021/07/03 13:21:11;;;;;;;72.70;21.00;;;29.20;1.00;;;;;;5012817;28;20537;-85
2021/07/03 13:23:39;;;;;;;71.40;18.60;;;28.70;1.00;;;;;;5013150;28;20449;-84
2021/07/03 13:28:54;;;;;;;72.40;28.37;;;29.00;1.00;;;;;;5010706;28;20475;-85
2021/07/03 13:31:21;;;;;;;184.87;172.27;;;29.30;1.00;;;;;;5012705;28;20815;-80
2021/07/03 13:33:50;;;;;;;169.53;157.30;;;29.20;1.00;;;;;;5012745;28;20523;-86
2021/07/03 13:38:57;;;;;;;107.10;96.50;;;29.50;1.00;;;;;;5010610;28;20479;-81
2021/07/03 13:41:40;;;;;;;177.23;164.40;;;29.70;1.00;;;;;;5011638;28;20453;-82
2021/07/03 13:44:15;;;;;;;89.30;71.43;;;29.50;1.00;;;;;;5013031;28;20540;-82
2021/07/03 13:46:42;;;;;;;78.57;42.90;;;29.20;1.00;;;;;;5012437;28;20499;-76
2021/07/03 13:49:18;;;;;;;73.07;37.90;;;28.70;1.00;;;;;;5012459;28;20962;-82
2021/07/03 13:51:49;;;;;;;69.93;30.43;;;28.30;1.00;;;;;;5012677;28;20894;-83
2021/07/03 13:54:20;;;;;;;70.37;30.67;;;27.70;1.00;;;;;;5006804;28;20856;-83
2021/07/03 13:56:47;;;;;;;70.10;29.17;;;27.90;1.00;;;;;;5013760;28;20544;-85
2021/07/03 13:59:14;;;;;;;68.20;27.97;;;27.90;1.00;;;;;;5016022;28;20552;-85
2021/07/03 14:01:41;;;;;;;69.00;28.17;;;27.90;1.00;;;;;;5015706;28;20951;-85
2021/07/03 14:04:11;;;;;;;69.37;32.73;;;27.60;1.00;;;;;;5016099;28;20550;-85
2021/07/03 14:06:39;;;;;;;69.60;33.73;;;27.60;1.00;;;;;;5016244;28;20456;-85
2021/07/03 14:09:06;;;;;;;71.80;38.77;;;27.90;1.00;;;;;;5010089;28;20551;-85
2021/07/03 14:11:36;;;;;;;71.77;41.47;;;27.80;1.00;;;;;;5008368;28;21025;-85
2021/07/03 14:14:03;;;;;;;69.97;41.13;;;27.40;1.00;;;;;;5015002;28;20454;-85
2021/07/03 14:16:30;;;;;;;72.83;41.90;;;27.00;1.00;;;;;;5014694;28;20454;-85
2021/07/03 14:18:57;;;;;;;71.87;39.30;;;26.70;1.00;;;;;;5014658;28;20474;-83
2021/07/03 14:21:26;;;;;;;64.20;27.57;;;26.30;1.00;;;;;;5014698;28;20573;-83
2021/07/03 14:23:53;;;;;;;61.13;17.53;;;26.10;1.00;;;;;;5014657;28;20453;-82
2021/07/03 14:26:20;;;;;;;63.77;23.57;;;25.90;1.00;;;;;;5013321;28;20493;-79
2021/07/03 14:28:47;;;;;;;61.40;24.83;;;25.70;1.30;;;;;;5014081;28;20457;-78
2021/07/03 14:31:14;;;;;;;59.63;22.63;;;25.40;1.40;;;;;;5014525;28;20504;-77
2021/07/03 14:33:40;;;;;;;62.23;18.60;;;25.10;1.00;;;;;;5015615;28;20500;-79
2021/07/03 14:36:07;;;;;;;54.90;15.80;;;24.90;3.10;;;;;;5006929;28;20461;-77
2021/07/03 14:38:35;;;;;;;59.70;14.57;;;24.70;6.50;;;;;;5015715;28;20465;-78
2021/07/03 14:41:02;;;;;;;58.50;21.10;;;24.60;5.50;;;;;;5011745;28;20462;-80
2021/07/03 14:43:29;;;;;;;55.03;14.00;;;24.40;7.70;;;;;;4995899;28;20545;-78
2021/07/03 14:45:56;;;;;;;55.13;19.90;;;24.20;7.60;;;;;;4996141;28;20815;-78
2021/07/03 14:48:23;;;;;;;52.53;16.23;;;24.00;10.00;;;;;;4995831;28;20541;-79
2021/07/03 14:50:51;;;;;;;45.73;9.50;;;23.80;7.30;;;;;;4995611;28;20482;-77
2021/07/03 14:53:18;;;;;;;48.30;12.40;;;23.70;11.60;;;;;;4995659;28;20465;-77
2021/07/03 14:55:46;;;;;;;47.33;8.83;;;23.50;14.70;;;;;;4994367;28;20465;-78
2021/07/03 14:58:13;;;;;;;43.13;8.30;;;23.40;15.10;;;;;;4995806;28;20497;-79
2021/07/03 15:00:40;;;;;;;42.90;7.97;;;23.30;14.60;;;;;;4995516;28;20461;-77
2021/07/03 15:03:06;;;;;;;42.67;8.67;;;23.40;14.60;;;;;;4995420;28;20945;-77
2021/07/03 15:05:33;;;;;;;40.90;7.00;;;23.40;16.50;;;;;;4995412;28;20461;-78
2021/07/03 15:08:00;;;;;;;39.90;7.23;;;23.30;16.90;;;;;;4995496;28;20462;-80
2021/07/03 15:10:27;;;;;;;39.70;6.57;;;23.30;17.30;;;;;;5010300;28;20552;-77
2021/07/03 15:13:36;;;;;;;;;;;;;;;;;;;;;
2021/07/03 15:19:52;;;;;;;39.37;8.13;;;23.20;19.50;;;;;;4883121;28;20987;-83
2021/07/03 15:26:12;;;;;;;38.37;6.40;;;23.40;22.20;;;;;;4857424;29;20461;-83
2021/07/03 15:28:58;;;;;;;39.20;7.57;;;23.30;20.50;;;;;;4869702;29;20471;-82
2021/07/03 15:31:29;;;;;;;43.43;6.73;;;23.00;20.20;;;;;;4934556;28;20570;-81
2021/07/03 15:33:59;;;;;;;40.03;7.60;;;22.80;25.10;;;;;;4984149;28;20457;-81
2021/07/03 15:36:50;;;;;;;40.40;7.10;;;22.40;28.70;;;;;;5014338;28;20478;-84
2021/07/03 15:39:45;;;;;;;41.53;7.70;;;22.20;34.00;;;;;;4996018;28;20450;-84
2021/07/03 15:42:41;;;;;;;;;;;;;;;;;;;;;
2021/07/03 15:55:49;;;;;;;;;;;;;;;;;;;;;
2021/07/03 16:01:06;;;;;;;34.80;7.30;;;21.10;59.60;;;;;;4924724;29;20815;-86
2021/07/03 16:07:01;;;;;;;35.97;7.83;;;20.90;67.20;;;;;;4887470;29;20469;-85
2021/07/03 16:09:31;;;;;;;35.70;11.10;;;20.90;68.10;;;;;;4985723;28;20461;-84
2021/07/03 16:12:04;;;;;;;34.80;9.10;;;20.80;70.30;;;;;;4992968;28;20479;-84
2021/07/03 16:14:35;;;;;;;35.17;9.30;;;20.80;71.90;;;;;;4994460;28;20462;-84
2021/07/03 16:17:13;;;;;;;35.80;11.33;;;20.80;70.90;;;;;;4994255;28;20529;-84
2021/07/03 16:19:43;;;;;;;43.43;13.60;;;20.80;74.00;;;;;;4993682;28;20466;-84
2021/07/03 16:22:12;;;;;;;36.50;16.40;;;20.80;73.20;;;;;;4994256;28;20462;-84
2021/07/03 16:24:41;;;;;;;42.20;18.97;;;20.90;73.40;;;;;;4994223;28;20470;-84
2021/07/03 16:27:11;;;;;;;39.07;21.40;;;20.90;72.50;;;;;;4992806;28;20457;-84
2021/07/03 16:29:40;;;;;;;41.97;25.67;;;20.90;76.10;;;;;;4993613;28;20466;-80
2021/07/03 16:32:08;;;;;;;45.47;30.67;;;20.90;77.60;;;;;;4993346;28;20931;-84
2021/07/03 16:34:41;;;;;;;44.93;30.33;;;20.90;77.80;;;;;;4993168;28;20526;-85
2021/07/03 16:37:08;;;;;;;42.40;24.90;;;21.00;84.40;;;;;;4992959;28;20824;-84
2021/07/03 16:39:35;;;;;;;41.67;22.33;;;21.00;76.70;;;;;;4993191;28;20458;-84
2021/07/03 16:42:05;;;;;;;43.10;25.27;;;21.00;73.10;;;;;;4991974;28;20549;-84
2021/07/03 16:44:39;;;;;;;40.87;20.80;;;21.00;79.00;;;;;;4993041;28;20465;-85
2021/07/03 16:47:26;;;;;;;39.73;15.80;;;21.00;80.60;;;;;;4992952;28;20963;-85
2021/07/03 16:50:12;;;;;;;;;;;;;;;;;;;;;
2021/07/03 16:52:50;;;;;;;48.67;30.87;;;21.00;81.50;;;;;;4968736;28;20993;-85
2021/07/03 16:55:39;;;;;;;47.93;35.73;;;21.00;83.30;;;;;;4992072;28;20977;-85
2021/07/03 16:58:08;;;;;;;45.57;31.00;;;21.00;84.70;;;;;;4993175;28;20990;-84
2021/07/03 17:00:36;;;;;;;45.57;32.07;;;20.90;79.50;;;;;;4993007;28;20454;-85
2021/07/03 17:03:23;;;;;;;44.50;26.00;;;20.90;80.20;;;;;;4993092;28;20454;-85
2021/07/03 17:05:54;;;;;;;50.77;31.30;;;20.90;84.30;;;;;;4992834;28;21019;-84
2021/07/03 17:08:25;;;;;;;36.40;7.93;;;21.00;85.80;;;;;;4992414;28;20517;-84
2021/07/03 17:10:55;;;;;;;33.17;5.90;;;20.90;61.20;;;;;;4972582;28;20459;-84
2021/07/03 17:13:55;;;;;;;;;;;;;;;;;;;;;
2021/07/03 17:16:36;;;;;;;32.13;6.30;;;20.90;38.80;;;;;;4962747;28;20482;-85
2021/07/03 17:19:08;;;;;;;37.47;7.87;;;20.50;53.50;;;;;;4973482;28;20455;-84
2021/07/03 17:21:41;;;;;;;31.70;7.60;;;20.20;63.10;;;;;;4973274;28;20478;-84
2021/07/03 17:24:47;;;;;;;;;;;;;;;;;;;;;
2021/07/03 17:27:25;;;;;;;31.10;6.70;;;20.10;53.30;;;;;;4912570;29;20460;-86
2021/07/03 17:30:24;;;;;;;28.67;6.87;;;20.10;45.90;;;;;;4973680;28;20459;-85
2021/07/03 17:33:02;;;;;;;;;;;;;;;;;;;;;
2021/07/03 17:35:55;;;;;;;30.93;8.67;;;19.70;62.60;;;;;;4958823;28;20534;-85
2021/07/03 17:38:50;;;;;;;35.07;20.30;;;19.80;67.30;;;;;;4921520;28;20900;-85
2021/07/03 17:41:17;;;;;;;34.97;14.70;;;19.70;77.90;;;;;;4975899;28;20940;-79
2021/07/03 17:43:52;;;;;;;33.83;15.67;;;19.70;74.80;;;;;;4976920;28;20455;-85
2021/07/03 17:59:14;;;;;;;;;;;;;;;;;;;;;
2021/07/03 18:02:08;;;;;;;34.27;17.20;;;19.70;76.50;;;;;;4815783;29;20486;-84
2021/07/03 18:04:44;;;;;;;41.10;34.00;;;19.60;77.80;;;;;;4847819;29;20463;-84
2021/07/03 18:07:18;;;;;;;48.70;38.40;;;19.70;83.70;;;;;;4861507;29;21023;-85
2021/07/03 18:09:47;;;;;;;46.40;33.77;;;19.80;84.70;;;;;;4872191;29;20451;-83
2021/07/03 18:12:22;;;;;;;43.73;35.23;;;19.80;87.80;;;;;;4888129;29;20572;-84
2021/07/03 18:14:50;;;;;;;62.23;56.37;;;19.80;89.00;;;;;;4936359;29;20543;-84
2021/07/03 18:17:18;;;;;;;76.10;69.50;;;19.90;86.50;;;;;;4993293;28;21033;-84
2021/07/03 18:19:47;;;;;;;79.57;73.37;;;19.90;91.40;;;;;;4996487;28;20455;-84
2021/07/03 18:22:15;;;;;;;93.63;86.63;;;19.90;92.40;;;;;;4996438;28;20494;-84
2021/07/03 18:24:44;;;;;;;67.40;61.50;;;19.90;91.50;;;;;;4996054;28;20481;-84
2021/07/03 18:27:11;;;;;;;85.37;78.47;;;20.00;91.70;;;;;;4995286;28;20454;-84
2021/07/03 18:29:42;;;;;;;76.90;70.27;;;19.90;90.80;;;;;;4996091;28;20958;-85
2021/07/03 18:32:22;;;;;;;68.77;62.57;;;20.00;90.60;;;;;;4996289;28;20496;-84
2021/07/03 18:34:50;;;;;;;66.70;60.30;;;19.90;89.50;;;;;;4995665;28;20457;-84
2021/07/03 18:37:19;;;;;;;64.80;59.10;;;20.00;90.10;;;;;;4996182;28;20505;-85
2021/07/03 18:39:52;;;;;;;63.03;57.20;;;19.90;89.80;;;;;;4996396;28;20816;-84
2021/07/03 18:42:23;;;;;;;56.97;51.37;;;20.00;90.00;;;;;;4994333;28;21015;-84
2021/07/03 18:44:51;;;;;;;69.67;63.57;;;19.90;90.90;;;;;;4995958;28;20530;-84
2021/07/03 18:47:27;;;;;;;69.53;63.33;;;19.90;90.40;;;;;;4996136;28;20454;-84
2021/07/03 18:50:04;;;;;;;85.30;78.53;;;19.80;91.90;;;;;;4995919;28;20812;-84
2021/07/03 18:52:44;;;;;;;;;;;;;;;;;;;;;
2021/07/03 18:55:14;;;;;;;82.07;75.90;;;19.70;91.60;;;;;;4994592;28;20505;-84
2021/07/03 18:57:51;;;;;;;;;;;;;;;;;;;;;
2021/07/03 19:00:30;;;;;;;;;;;;;;;;;;;;;
2021/07/03 19:03:47;;;;;;;;;;;;;;;;;;;;;
2021/07/03 19:06:55;;;;;;;;;;;;;;;;;;;;;
2021/07/03 19:10:11;;;;;;;;;;;;;;;;;;;;;
2021/07/03 19:29:33;;;;;;;40.97;36.30;;;19.20;90.00;;;;;;4867810;29;21004;-85
2021/07/03 19:38:43;;;;;;;;;;;;;;;;;;;;;
2021/07/03 19:44:09;;;;;;;43.57;33.80;;;19.10;89.70;;;;;;4942948;29;20536;-84
2021/07/03 19:46:53;;;;;;;51.87;46.30;;;19.00;91.30;;;;;;4954024;29;20463;-84
2021/07/03 19:49:50;;;;;;;54.90;49.60;;;19.00;92.80;;;;;;4968657;28;20458;-86
2021/07/03 19:56:06;;;;;;;66.77;61.07;;;18.90;92.50;;;;;;4936487;28;20454;-84
2021/07/03 19:58:49;;;;;;;85.13;78.43;;;18.80;94.00;;;;;;4993910;28;20458;-85
2021/07/03 20:01:44;;;;;;;74.30;68.00;;;18.80;95.10;;;;;;4993390;28;20482;-85
2021/07/03 20:04:59;;;;;;;126.27;118.60;;;18.80;96.60;;;;;;4975171;28;20536;-85
2021/07/03 20:07:46;;;;;;;;;;;;;;;;;;;;;
2021/07/03 20:11:09;;;;;;;;;;;;;;;;;;;;;
2021/07/03 20:14:18;;;;;;;;;;;;;;;;;;;;;
2021/07/03 20:17:38;;;;;;;151.93;143.23;;;18.70;94.60;;;;;;4878422;29;20891;-85
2021/07/03 20:20:28;;;;;;;133.90;125.63;;;18.70;95.30;;;;;;4942117;28;20826;-84
2021/07/03 20:29:17;;;;;;;;;;;;;;;;;;;;;
2021/07/03 20:31:50;;;;;;;200.33;190.73;;;18.70;95.20;;;;;;4976972;28;20458;-84
2021/07/03 20:34:18;;;;;;;259.30;247.30;;;18.60;95.40;;;;;;4993905;28;20486;-85
2021/07/03 20:37:27;;;;;;;;;;;;;;;;;;;;;
2021/07/03 20:40:31;;;;;;;157.07;148.37;;;18.60;96.90;;;;;;4908089;28;20457;-85
2021/07/03 20:43:03;;;;;;;170.97;162.17;;;18.50;97.00;;;;;;4932677;29;20488;-84
2021/07/03 20:45:49;;;;;;;178.63;169.43;;;18.50;96.60;;;;;;4933750;29;20493;-85
2021/07/03 20:48:41;;;;;;;;;;;;;;;;;;;;;
2021/07/03 20:51:23;;;;;;;228.10;217.63;;;18.50;97.00;;;;;;4933684;29;20980;-84
2021/07/03 20:53:56;;;;;;;252.90;241.73;;;18.40;97.40;;;;;;4938698;28;20488;-85
2021/07/03 20:56:29;;;;;;;224.40;213.77;;;18.40;97.10;;;;;;4992582;28;20812;-85
2021/07/03 20:59:01;;;;;;;200.80;190.63;;;18.40;97.40;;;;;;4993520;28;20462;-84
2021/07/03 21:01:50;;;;;;;196.40;185.97;;;18.30;97.50;;;;;;4993597;28;20478;-84
2021/07/03 21:04:32;;;;;;;;;;;;;;;;;;;;;
2021/07/03 21:07:03;;;;;;;194.17;184.37;;;18.40;97.80;;;;;;4978765;28;20968;-84
2021/07/03 21:09:32;;;;;;;211.53;201.20;;;18.40;96.70;;;;;;4993558;28;20481;-85
2021/07/03 21:12:14;;;;;;;162.23;153.13;;;18.40;96.30;;;;;;4992515;28;20462;-84
2021/07/03 21:15:13;;;;;;;;;;;;;;;;;;;;;
2021/07/03 21:17:47;;;;;;;152.67;143.87;;;18.40;96.00;;;;;;4947283;28;20452;-85
2021/07/03 21:23:11;;;;;;;130.90;122.97;;;18.40;96.60;;;;;;4952599;28;20480;-84
2021/07/03 21:25:55;;;;;;;;;;;;;;;;;;;;;
2021/07/03 21:28:24;;;;;;;97.53;90.67;;;18.30;96.40;;;;;;4918849;28;20506;-84
2021/07/03 21:31:09;;;;;;;101.80;94.47;;;18.30;96.90;;;;;;4952480;28;20487;-84
2021/07/03 21:33:52;;;;;;;;;;;;;;;;;;;;;
2021/07/03 21:36:23;;;;;;;64.90;59.00;;;18.30;96.50;;;;;;4952054;28;20452;-84
2021/07/03 21:38:53;;;;;;;103.10;95.60;;;18.30;96.70;;;;;;4952374;28;21094;-83
2021/07/03 21:41:26;;;;;;;101.03;93.90;;;18.30;97.50;;;;;;4951043;28;20460;-84
2021/07/03 21:43:53;;;;;;;83.33;76.67;;;18.30;97.80;;;;;;4989974;28;20454;-84
2021/07/03 21:46:37;;;;;;;93.10;86.30;;;18.20;97.40;;;;;;4993236;28;20533;-84
2021/07/03 21:49:14;;;;;;;101.37;94.27;;;18.20;97.20;;;;;;4993368;28;20450;-85
2021/07/03 21:51:43;;;;;;;119.23;111.30;;;18.20;97.70;;;;;;4992963;28;20572;-85
2021/07/03 21:54:11;;;;;;;113.97;106.40;;;18.20;97.90;;;;;;4992942;28;20497;-85
2021/07/03 21:56:47;;;;;;;152.10;143.40;;;18.10;98.20;;;;;;4973314;28;20450;-84
2021/07/03 21:59:29;;;;;;;;;;;;;;;;;;;;;
2021/07/03 22:02:37;;;;;;;;;;;;;;;;;;;;;
2021/07/03 22:08:10;;;;;;;126.07;117.93;;;18.10;98.30;;;;;;4993297;28;20500;-84
2021/07/03 22:10:56;;;;;;;114.73;106.70;;;18.00;98.40;;;;;;4992760;28;20934;-84
2021/07/03 22:16:49;;;;;;;;;;;;;;;;;;;;;
2021/07/03 22:19:26;;;;;;;182.63;173.00;;;17.90;99.70;;;;;;4986992;28;20454;-85
2021/07/03 22:22:01;;;;;;;181.23;172.03;;;17.80;99.90;;;;;;4996289;28;20457;-84
2021/07/03 22:25:14;;;;;;;220.43;210.10;;;17.80;99.90;;;;;;4996265;28;20453;-85
2021/07/03 22:28:08;;;;;;;;;;;;;;;;;;;;;
2021/07/03 22:30:46;;;;;;;238.77;227.43;;;17.70;99.90;;;;;;4961886;28;20454;-85
2021/07/03 22:33:41;;;;;;;228.17;217.27;;;17.60;99.90;;;;;;4996159;28;20528;-85
2021/07/03 22:36:35;;;;;;;245.37;234.47;;;17.50;99.90;;;;;;4959297;28;20529;-85
2021/07/03 22:39:39;;;;;;;;;;;;;;;;;;;;;
2021/07/03 22:42:36;;;;;;;279.80;267.77;;;17.30;99.90;;;;;;4984312;28;20442;-84
2021/07/03 22:45:23;;;;;;;303.47;290.93;;;17.40;99.90;;;;;;4995836;28;20954;-84
2021/07/03 22:48:15;;;;;;;359.17;344.60;;;17.40;99.90;;;;;;4979013;28;20465;-85
2021/07/03 22:51:08;;;;;;;363.87;349.57;;;17.50;99.90;;;;;;4991727;28;21009;-84
2021/07/03 22:53:59;;;;;;;;;;;;;;;;;;;;;
2021/07/03 22:56:41;;;;;;;310.00;296.90;;;17.40;99.90;;;;;;4979228;28;20446;-84
2021/07/03 22:59:27;;;;;;;305.23;292.53;;;17.30;99.90;;;;;;4995711;28;20469;-84
2021/07/03 23:08:49;;;;;;;320.13;306.93;;;17.10;99.90;;;;;;4916274;29;20486;-84
2021/07/03 23:11:29;;;;;;;;;;;;;;;;;;;;;
2021/07/03 23:14:07;;;;;;;324.13;310.33;;;17.10;99.90;;;;;;4971414;28;20496;-84
2021/07/03 23:17:03;;;;;;;319.47;305.60;;;17.10;99.90;;;;;;4995574;28;20489;-84
2021/07/03 23:19:48;;;;;;;360.43;345.87;;;17.10;99.90;;;;;;4959378;28;20455;-85
2021/07/03 23:22:42;;;;;;;353.70;338.87;;;17.20;99.90;;;;;;4995415;28;20455;-85
2021/07/03 23:25:28;;;;;;;348.37;333.13;;;17.20;99.90;;;;;;4914799;29;20462;-85
2021/07/03 23:28:06;;;;;;;340.83;325.83;;;17.20;99.90;;;;;;4976060;28;20493;-83
2021/07/03 23:30:49;;;;;;;;;;;;;;;;;;;;;
2021/07/03 23:33:40;;;;;;;;;;;;;;;;;;;;;
2021/07/03 23:36:50;;;;;;;339.67;325.83;;;17.30;99.90;;;;;;4995095;28;20541;-84
2021/07/03 23:39:35;;;;;;;342.80;328.50;;;17.30;99.90;;;;;;4995275;28;20454;-84
2021/07/03 23:42:06;;;;;;;335.47;321.93;;;17.20;99.90;;;;;;4993992;28;20550;-84
2021/07/03 23:44:37;;;;;;;338.50;324.07;;;17.30;99.90;;;;;;4994959;28;20509;-84
2021/07/03 23:47:09;;;;;;;319.27;305.40;;;17.20;99.90;;;;;;4994904;28;20461;-85
2021/07/03 23:49:43;;;;;;;332.77;318.43;;;17.10;99.90;;;;;;4994904;28;20587;-84
2021/07/03 23:52:21;;;;;;;;;;;;;;;;;;;;;
2021/07/03 23:55:20;;;;;;;344.50;329.07;;;17.10;99.90;;;;;;4993393;28;20547;-85
2021/07/03 23:57:58;;;;;;;364.10;349.27;;;17.00;99.90;;;;;;4948055;28;20515;-84
